Saltillo, Mexico

9:50 PM EST on April 21, 2015 (GMT -0500)
Meteosur | | Change Station
CLOSE
Current Station
Personal Weather Station
Location: Saltillo, COAHUILA DE ZARAGOZA
Elevation: 5537 ft
Nearby Weather Stations

Elev 5537 ft 25.39 °N, 101.02 °W | Updated 3 minutes ago

Scattered Clouds
Scattered Clouds
68.3 °F
Feels Like 68.3 °F
N
0.0
Wind Variable Wind from NNE
Gusts 0.0 mph

Today
High -- | Low -- °F
--% Chance of Precip.
Yesterday
High -- | Low -- °F
Precip. -- in
7:16 AM 8:09 PM
Waxing Crescent, 14% visible
Pressure 30.00 in
Visibility 8.0 miles
Clouds Scattered Clouds 1200 ft
Scattered Clouds 10000 ft
Dew Point 57 °F
Humidity 67%
Rainfall 0.00 in
Snow Depth Not available.
UV 0 out of 12
Pollen Not available.
Air Quality Not available.
Flu Activity Not available.
METAR MMIO 220240Z 36006KT 8SM SCT012 SCT100 17/14 A3000 RMK 8/570 HZY

More Conditions Fewer Conditions

Pressure 30.00 in
Visibility 8.0 miles
Clouds Scattered Clouds 1200 ft
Scattered Clouds 10000 ft
Dew Point 57 °F
Humidity 67%
Rainfall 0.00 in
Snow Depth Not available.
UV 0 out of 12
Pollen Not available.
Air Quality Not available.
Flu Activity Not available.
METAR MMIO 220240Z 36006KT 8SM SCT012 SCT100 17/14 A3000 RMK 8/570 HZY

More Conditions Fewer Conditions

10-Day Weather Forecast

Almanac

Astronomy

Apr. 21, 2015 Rise Set
Actual Time
Civil Twilight
Nautical Twilight
Astronomical Twilight
Moon
Length of Visible Light
Length of Day
Tomorrow will be .
, % of the Moon is Illuminated

Today's Extremes

Country Highs Country Lows

Community

WunderPhotos

Upload Photos

1,815,642 photos uploaded!

WunderBlogs® & News

Nearby

Air Quality

  Air Quality AQ Index Pollutant
Not available.

Snow Depth

Station Depth Elevation

Earthquake Activity

City Distance Mag. Time & Date
Minimum magnitude displayed is 2.5.

Coastal Water Temperatures

Place Temperature

Stations

Nearby Weather Stations

Station Location Temp. Windchill Dew Point Humidity Wind Precip. Elev Updated Type